Time;durP1;ratioP1;P1;durP2;ratioP2;P2;SDS_P1;SDS_P2;PMS_P1;PMS_P2;Temp;Humidity;BMP_temperature;BMP_pressure;BME280_temperature;BME280_humidity;BME280_pressure;Samples;Min_cycle;Max_cycle;Signal;HPM_P1;HPM_P2
2024/01/04 00:01:27;;;;;;;2.20;0.90;;;6.10;1.00;;;;;;5034813;28;20041;-68
2024/01/04 00:03:53;;;;;;;14.80;1.30;;;6.20;1.00;;;;;;5041740;28;20037;-68
2024/01/04 00:06:20;;;;;;;2.15;1.00;;;6.20;1.00;;;;;;5032226;28;20762;-67
2024/01/04 00:08:46;;;;;;;3.58;0.95;;;6.10;1.00;;;;;;5036963;28;20061;-66
2024/01/04 00:11:11;;;;;;;4.35;1.00;;;6.10;1.00;;;;;;5045806;28;20041;-68
2024/01/04 00:13:37;;;;;;;2.60;0.90;;;6.00;1.00;;;;;;5034206;28;20602;-67
2024/01/04 00:16:07;;;;;;;3.22;1.40;;;6.00;1.00;;;;;;5022780;28;20136;-67
2024/01/04 00:18:33;;;;;;;;;;;6.10;1.00;;;;;;5036146;28;20041;-68
2024/01/04 00:21:02;;;;;;;3.67;1.00;;;6.00;1.00;;;;;;5031940;28;19927;-67
2024/01/04 00:23:27;;;;;;;6.65;1.30;;;6.00;1.00;;;;;;5034656;28;20049;-67
2024/01/04 00:25:53;;;;;;;3.90;1.10;;;6.00;1.00;;;;;;5038579;28;20124;-68
2024/01/04 00:28:19;;;;;;;5.47;1.45;;;6.00;1.00;;;;;;5045496;28;20048;-67
2024/01/04 00:30:44;;;;;;;7.53;1.02;;;6.10;1.00;;;;;;5041059;28;20088;-67
2024/01/04 00:33:10;;;;;;;3.40;1.02;;;5.90;1.00;;;;;;5041264;28;20071;-67
2024/01/04 00:35:35;;;;;;;3.25;1.33;;;5.90;1.00;;;;;;5034479;28;20473;-67
2024/01/04 00:38:01;;;;;;;2.95;1.10;;;5.90;1.00;;;;;;5033165;28;20037;-67
2024/01/04 00:40:28;;;;;;;2.45;1.40;;;5.80;1.00;;;;;;5031207;28;20034;-67
2024/01/04 00:42:54;;;;;;;4.93;1.40;;;5.90;1.00;;;;;;5038802;28;20112;-67
2024/01/04 00:45:20;;;;;;;3.72;1.17;;;5.80;1.00;;;;;;5017146;28;20041;-67
2024/01/04 00:47:45;;;;;;;3.40;1.08;;;5.90;1.00;;;;;;5037504;28;20120;-67
2024/01/04 00:50:11;;;;;;;5.57;1.30;;;5.90;1.00;;;;;;5016561;28;20041;-67
2024/01/04 00:52:37;;;;;;;3.17;1.10;;;5.90;1.00;;;;;;5035345;28;20365;-67
2024/01/04 00:55:02;;;;;;;4.15;1.63;;;5.90;1.00;;;;;;5043697;28;20044;-67
2024/01/04 00:57:28;;;;;;;2.67;1.27;;;5.70;1.00;;;;;;5036591;28;20389;-67
2024/01/04 00:59:54;;;;;;;4.68;1.90;;;5.70;1.00;;;;;;5035090;28;20040;-68
2024/01/04 01:02:19;;;;;;;2.97;1.13;;;5.70;1.00;;;;;;5024280;28;20041;-67
2024/01/04 01:04:45;;;;;;;4.00;1.33;;;5.80;1.00;;;;;;5015194;28;20043;-66
2024/01/04 01:07:10;;;;;;;3.03;1.05;;;5.80;1.00;;;;;;5047302;28;20504;-68
2024/01/04 01:09:36;;;;;;;4.57;1.33;;;5.60;1.00;;;;;;5031507;28;20037;-67
2024/01/04 01:12:02;;;;;;;4.70;1.17;;;5.60;1.00;;;;;;5033954;28;20103;-66
2024/01/04 01:14:28;;;;;;;5.00;0.93;;;5.70;1.00;;;;;;5029065;28;20543;-67
2024/01/04 01:16:53;;;;;;;2.40;0.85;;;5.60;1.00;;;;;;5030811;28;20111;-67
2024/01/04 01:19:19;;;;;;;5.28;1.05;;;5.70;1.00;;;;;;5032867;28;20486;-66
2024/01/04 01:21:45;;;;;;;3.30;1.02;;;5.60;1.00;;;;;;5037360;28;20054;-67
2024/01/04 01:24:10;;;;;;;1.85;0.80;;;5.50;1.00;;;;;;5040826;28;20465;-67
2024/01/04 01:26:36;;;;;;;5.80;1.13;;;5.60;1.00;;;;;;5015449;28;20040;-67
2024/01/04 01:29:02;;;;;;;4.70;1.30;;;5.40;1.00;;;;;;5014023;28;20124;-67
2024/01/04 01:31:27;;;;;;;4.78;1.15;;;5.50;1.00;;;;;;4992337;28;1085087;-67
2024/01/04 01:33:53;;;;;;;3.17;1.20;;;5.50;1.00;;;;;;5041054;28;20053;-67
2024/01/04 01:36:18;;;;;;;6.13;1.17;;;5.40;1.00;;;;;;5030234;28;20535;-67
2024/01/04 01:38:44;;;;;;;2.50;1.30;;;5.40;1.00;;;;;;5028875;28;20068;-67
2024/01/04 01:41:10;;;;;;;5.53;1.30;;;5.50;1.00;;;;;;5025823;28;20044;-66
2024/01/04 01:43:35;;;;;;;5.32;1.10;;;5.50;1.00;;;;;;5025580;28;20470;-67
2024/01/04 01:46:01;;;;;;;7.65;1.40;;;5.40;1.00;;;;;;5034994;28;20029;-67
2024/01/04 01:48:27;;;;;;;2.05;1.08;;;5.50;1.00;;;;;;5038124;28;20129;-67
2024/01/04 01:50:53;;;;;;;2.78;0.95;;;5.40;1.00;;;;;;5037318;28;20124;-67
2024/01/04 01:53:19;;;;;;;3.50;1.10;;;5.50;1.00;;;;;;5033940;28;20041;-67
2024/01/04 01:55:44;;;;;;;4.72;1.00;;;5.50;1.00;;;;;;5030894;28;20508;-67
2024/01/04 01:58:10;;;;;;;3.25;1.00;;;5.40;1.00;;;;;;5029930;28;20037;-67
2024/01/04 02:00:37;;;;;;;2.90;1.08;;;5.40;1.00;;;;;;5023165;28;20049;-67
2024/01/04 02:03:04;;;;;;;5.38;1.02;;;5.40;1.00;;;;;;5039752;28;20060;-67
2024/01/04 02:05:30;;;;;;;1.52;0.60;;;5.30;1.00;;;;;;5041019;28;20041;-67
2024/01/04 02:07:56;;;;;;;5.38;1.10;;;5.40;1.00;;;;;;5045761;28;20041;-66
2024/01/04 02:10:22;;;;;;;4.07;1.20;;;5.30;1.00;;;;;;5039875;28;20041;-67
2024/01/04 02:12:48;;;;;;;3.35;0.77;;;5.30;1.00;;;;;;5034510;28;20054;-67
2024/01/04 02:15:14;;;;;;;3.63;1.27;;;5.30;1.00;;;;;;5043034;28;20037;-67
2024/01/04 02:17:40;;;;;;;2.38;0.90;;;5.20;1.00;;;;;;5029855;28;20052;-67
2024/01/04 02:20:07;;;;;;;4.75;0.80;;;5.20;1.00;;;;;;5030019;28;20053;-67
2024/01/04 02:22:35;;;;;;;2.67;0.80;;;5.10;1.00;;;;;;5038514;28;20052;-67
2024/01/04 02:25:00;;;;;;;6.03;0.93;;;5.20;1.00;;;;;;5037431;28;20520;-66
2024/01/04 02:27:26;;;;;;;1.40;0.65;;;5.20;1.00;;;;;;5036743;28;20037;-67
2024/01/04 02:29:52;;;;;;;3.75;0.95;;;5.20;1.00;;;;;;5033037;28;20037;-67
2024/01/04 02:32:17;;;;;;;3.33;0.80;;;5.10;1.00;;;;;;5037402;28;20067;-68
2024/01/04 02:34:43;;;;;;;5.50;0.90;;;5.00;1.00;;;;;;5014091;28;20136;-67
2024/01/04 02:37:08;;;;;;;1.60;0.75;;;5.00;1.00;;;;;;5015640;28;20036;-67
2024/01/04 02:39:34;;;;;;;1.70;0.70;;;5.10;1.00;;;;;;5041581;28;21977;-67
2024/01/04 02:42:00;;;;;;;4.00;0.70;;;5.00;1.00;;;;;;5036208;28;20045;-67
2024/01/04 02:44:25;;;;;;;1.13;0.70;;;5.10;1.00;;;;;;5046170;28;20049;-67
2024/01/04 02:46:51;;;;;;;4.10;0.73;;;5.00;1.00;;;;;;5041748;28;20033;-67
2024/01/04 02:49:16;;;;;;;2.35;0.60;;;5.00;1.00;;;;;;5031923;28;20450;-66
2024/01/04 02:51:42;;;;;;;3.65;0.80;;;5.00;1.00;;;;;;5029119;28;20167;-67
2024/01/04 02:54:08;;;;;;;6.85;1.23;;;5.00;1.00;;;;;;5028350;28;20175;-67
2024/01/04 02:56:34;;;;;;;4.78;1.02;;;4.90;1.00;;;;;;5029906;28;20376;-67
2024/01/04 02:58:59;;;;;;;2.85;0.75;;;4.80;1.00;;;;;;5029787;28;20044;-67
2024/01/04 03:01:25;;;;;;;2.05;0.60;;;4.60;1.00;;;;;;5032646;28;20485;-67
2024/01/04 03:03:51;;;;;;;4.75;0.68;;;4.60;1.00;;;;;;5026765;28;20123;-67
2024/01/04 03:06:24;;;;;;;3.17;0.65;;;4.60;1.00;;;;;;5032904;28;20045;-67
2024/01/04 03:08:50;;;;;;;2.58;0.68;;;4.50;1.00;;;;;;5025108;28;20030;-67
2024/01/04 03:11:16;;;;;;;2.15;0.85;;;4.50;1.00;;;;;;5029382;28;20068;-67
2024/01/04 03:13:42;;;;;;;3.63;0.70;;;4.50;1.00;;;;;;5034838;28;20033;-67
2024/01/04 03:16:08;;;;;;;2.30;0.50;;;4.50;1.00;;;;;;5030273;28;20037;-67
2024/01/04 03:18:36;;;;;;;3.47;0.60;;;4.50;1.00;;;;;;5029019;28;20053;-67
2024/01/04 03:21:04;;;;;;;2.17;0.60;;;4.40;1.00;;;;;;5032116;28;20124;-67
2024/01/04 03:23:29;;;;;;;2.70;0.60;;;4.40;1.00;;;;;;5029155;28;20461;-68
2024/01/04 03:25:55;;;;;;;1.33;0.55;;;4.40;1.00;;;;;;5044835;28;20111;-66
2024/01/04 03:28:21;;;;;;;0.85;0.57;;;4.30;1.00;;;;;;5040617;28;20040;-67
2024/01/04 03:30:46;;;;;;;2.38;0.63;;;4.30;1.00;;;;;;5012884;28;20114;-66
2024/01/04 03:33:12;;;;;;;1.98;0.85;;;4.20;1.00;;;;;;5029585;28;20049;-69
2024/01/04 03:35:38;;;;;;;1.80;0.70;;;4.20;1.00;;;;;;5028595;28;20045;-67
2024/01/04 03:38:03;;;;;;;4.13;1.02;;;4.10;1.00;;;;;;5040278;28;20065;-67
2024/01/04 03:40:29;;;;;;;1.80;0.60;;;4.10;1.00;;;;;;5040707;28;20048;-67
2024/01/04 03:42:54;;;;;;;2.65;0.60;;;4.10;1.00;;;;;;5030658;28;20029;-67
2024/01/04 03:45:21;;;;;;;1.52;0.52;;;4.00;1.00;;;;;;5029419;28;20032;-66
2024/01/04 03:47:48;;;;;;;1.42;0.57;;;4.00;1.00;;;;;;5028750;28;20052;-68
2024/01/04 03:50:14;;;;;;;2.38;0.63;;;4.00;1.00;;;;;;5017228;28;20033;-66
2024/01/04 03:52:40;;;;;;;3.25;0.70;;;3.90;1.00;;;;;;5013166;28;20038;-67
2024/01/04 03:55:06;;;;;;;3.67;0.60;;;3.90;1.00;;;;;;5034030;28;20041;-67
2024/01/04 03:57:32;;;;;;;1.38;0.55;;;3.90;1.00;;;;;;5017699;28;20048;-66
2024/01/04 03:59:57;;;;;;;3.40;0.52;;;3.80;1.00;;;;;;5032813;28;20056;-67
2024/01/04 04:02:23;;;;;;;2.08;0.68;;;3.90;1.00;;;;;;5040898;28;20080;-67
2024/01/04 04:04:49;;;;;;;2.38;0.50;;;3.90;1.00;;;;;;5033355;28;20236;-67
2024/01/04 04:07:15;;;;;;;4.10;0.73;;;3.90;1.00;;;;;;5040549;28;20091;-67
2024/01/04 04:09:40;;;;;;;2.05;0.45;;;4.00;1.00;;;;;;5033382;28;20615;-66
2024/01/04 04:12:06;;;;;;;2.13;0.60;;;4.00;1.00;;;;;;5047549;28;20045;-67
2024/01/04 04:14:34;;;;;;;2.20;0.70;;;4.00;1.00;;;;;;5031714;28;20044;-67
2024/01/04 04:17:00;;;;;;;5.32;0.85;;;4.00;1.00;;;;;;5035298;28;20087;-67
2024/01/04 04:19:27;;;;;;;1.25;0.60;;;4.10;1.00;;;;;;5030942;28;20041;-67
2024/01/04 04:21:53;;;;;;;8.50;0.82;;;3.90;1.00;;;;;;5016604;28;20037;-67
2024/01/04 04:24:18;;;;;;;1.80;0.70;;;4.00;1.00;;;;;;5039637;28;20527;-67
2024/01/04 04:26:44;;;;;;;2.78;0.70;;;4.00;1.00;;;;;;5034806;28;20086;-67
2024/01/04 04:29:09;;;;;;;3.05;0.80;;;3.90;1.00;;;;;;5038027;28;20044;-66
2024/01/04 04:31:35;;;;;;;2.95;0.93;;;3.80;1.00;;;;;;5032533;28;20085;-67
2024/01/04 04:34:01;;;;;;;1.90;0.70;;;3.70;1.00;;;;;;5048488;28;20053;-66
2024/01/04 04:36:26;;;;;;;5.60;0.82;;;3.70;1.00;;;;;;5042417;28;20045;-67
2024/01/04 04:38:52;;;;;;;2.20;1.08;;;3.70;1.00;;;;;;5032123;28;20044;-67
2024/01/04 04:41:17;;;;;;;2.95;0.75;;;3.70;1.00;;;;;;5035378;28;20128;-66
2024/01/04 04:43:43;;;;;;;4.18;0.63;;;3.70;1.00;;;;;;5019920;28;20052;-67
2024/01/04 04:46:10;;;;;;;2.88;0.60;;;3.70;1.00;;;;;;5044105;28;20077;-66
2024/01/04 04:48:36;;;;;;;2.88;0.80;;;3.70;1.00;;;;;;5039208;28;20468;-66
2024/01/04 04:51:02;;;;;;;4.47;0.85;;;3.60;1.00;;;;;;5037312;28;20033;-67
2024/01/04 04:53:28;;;;;;;4.00;0.60;;;3.70;1.00;;;;;;5037324;28;20404;-67
2024/01/04 04:55:54;;;;;;;2.97;0.60;;;3.70;1.00;;;;;;5017055;28;20036;-67
2024/01/04 04:58:19;;;;;;;3.95;0.90;;;3.60;1.00;;;;;;5043506;28;20373;-67
2024/01/04 05:00:45;;;;;;;2.55;0.73;;;3.70;1.00;;;;;;5029435;28;20052;-67
2024/01/04 05:03:10;;;;;;;2.05;0.65;;;3.60;1.00;;;;;;5038498;28;20436;-66
2024/01/04 05:05:36;;;;;;;3.13;0.60;;;3.60;1.00;;;;;;5034804;28;20094;-66
2024/01/04 05:08:05;;;;;;;2.22;0.57;;;3.50;1.00;;;;;;5034959;28;20032;-67
2024/01/04 05:10:31;;;;;;;2.22;0.60;;;3.50;1.00;;;;;;5033453;28;20048;-67
2024/01/04 05:13:00;;;;;;;2.47;0.70;;;3.40;1.00;;;;;;5034367;28;20048;-67
2024/01/04 05:15:26;;;;;;;2.75;0.60;;;3.40;1.00;;;;;;5031704;28;20072;-67
2024/01/04 05:17:52;;;;;;;1.85;0.60;;;3.40;1.00;;;;;;5034126;28;20041;-67
2024/01/04 05:20:18;;;;;;;1.92;0.63;;;3.40;1.00;;;;;;5019457;28;20128;-67
2024/01/04 05:22:44;;;;;;;2.95;0.80;;;3.50;1.00;;;;;;5014347;28;20038;-67
2024/01/04 05:25:13;;;;;;;2.22;0.70;;;3.50;1.00;;;;;;5037217;28;20116;-66
2024/01/04 05:27:38;;;;;;;3.47;0.75;;;3.60;1.00;;;;;;5031280;28;20048;-66
2024/01/04 05:30:09;;;;;;;4.10;0.70;;;3.50;1.00;;;;;;5030833;28;20041;-67
2024/01/04 05:32:34;;;;;;;;;;;3.50;1.00;;;;;;5034623;28;20037;-67
2024/01/04 05:35:00;;;;;;;2.67;0.93;;;3.60;1.00;;;;;;5032419;28;19923;-67
2024/01/04 05:37:25;;;;;;;2.22;0.60;;;3.60;1.00;;;;;;5027829;28;20087;-66
2024/01/04 05:39:51;;;;;;;2.53;0.88;;;3.60;1.00;;;;;;5037904;28;20037;-67
2024/01/04 05:42:17;;;;;;;9.05;1.23;;;3.60;1.00;;;;;;5035967;28;20025;-66
2024/01/04 05:44:42;;;;;;;4.47;1.00;;;3.60;1.00;;;;;;5033067;28;20444;-67
2024/01/04 05:47:08;;;;;;;5.28;0.82;;;3.60;1.00;;;;;;5034519;28;20037;-66
2024/01/04 05:49:33;;;;;;;3.08;0.80;;;3.60;1.00;;;;;;5029741;28;20041;-67
2024/01/04 05:51:59;;;;;;;4.97;1.10;;;3.70;1.00;;;;;;5032922;28;20120;-67
2024/01/04 05:54:25;;;;;;;3.30;1.52;;;3.70;1.00;;;;;;5031449;28;20144;-67
2024/01/04 05:56:50;;;;;;;3.95;1.10;;;3.80;1.00;;;;;;5032260;28;20405;-66
2024/01/04 05:59:16;;;;;;;5.53;0.73;;;3.70;1.00;;;;;;5030378;28;20045;-66
2024/01/04 06:01:41;;;;;;;2.95;0.70;;;3.70;1.00;;;;;;5015950;28;20513;-66
2024/01/04 06:04:07;;;;;;;1.30;0.68;;;3.70;1.00;;;;;;5035109;28;20057;-66
2024/01/04 06:06:33;;;;;;;5.93;0.63;;;3.70;1.00;;;;;;5012942;28;20076;-67
2024/01/04 06:08:58;;;;;;;2.05;0.70;;;3.60;1.00;;;;;;5036046;28;20389;-66
2024/01/04 06:11:24;;;;;;;2.55;0.60;;;3.60;1.00;;;;;;5030359;28;20053;-67
2024/01/04 06:13:50;;;;;;;3.70;1.15;;;3.60;1.00;;;;;;5030023;28;20480;-67
2024/01/04 06:16:17;;;;;;;1.20;0.60;;;3.50;1.00;;;;;;5040106;28;20764;-66
2024/01/04 06:18:43;;;;;;;3.58;0.80;;;3.50;99.90;;;;;;5032046;28;20059;-66
2024/01/04 06:21:09;;;;;;;4.25;0.80;;;3.50;99.90;;;;;;5013605;28;20033;-67
2024/01/04 06:23:38;;;;;;;1.83;0.57;;;3.40;99.90;;;;;;5011369;28;20050;-66
2024/01/04 06:26:04;;;;;;;3.50;0.80;;;3.30;99.90;;;;;;5013312;28;20052;-66
2024/01/04 06:28:30;;;;;;;5.05;0.90;;;3.30;99.90;;;;;;5034188;28;20036;-66
2024/01/04 06:30:56;;;;;;;4.05;0.80;;;3.30;99.90;;;;;;5034857;28;20053;-68
2024/01/04 06:33:22;;;;;;;1.60;0.65;;;3.20;99.90;;;;;;5031680;28;20045;-68
2024/01/04 06:35:47;;;;;;;2.28;0.80;;;3.30;99.90;;;;;;5031012;28;20041;-67
2024/01/04 06:38:13;;;;;;;2.38;0.60;;;3.20;99.90;;;;;;5028099;28;20401;-68
2024/01/04 06:40:39;;;;;;;3.30;0.65;;;3.10;99.90;;;;;;5029972;28;20033;-67
2024/01/04 06:43:08;;;;;;;2.80;0.63;;;3.10;99.90;;;;;;5027345;28;20086;-67
2024/01/04 06:45:37;;;;;;;2.28;0.60;;;3.10;99.90;;;;;;5040294;28;20102;-67
2024/01/04 06:48:08;;;;;;;1.92;0.60;;;3.00;99.90;;;;;;5035347;28;20033;-67
2024/01/04 06:50:33;;;;;;;2.53;0.52;;;2.90;99.90;;;;;;5040564;28;20060;-68
2024/01/04 06:52:59;;;;;;;3.67;0.70;;;2.90;99.90;;;;;;5044197;28;20033;-68
2024/01/04 06:55:25;;;;;;;3.40;0.70;;;2.90;99.90;;;;;;5044036;28;20060;-68
2024/01/04 06:57:50;;;;;;;4.65;0.88;;;2.90;99.90;;;;;;5037924;28;20037;-68
2024/01/04 07:00:16;;;;;;;3.00;0.80;;;2.80;99.90;;;;;;5033041;28;20465;-68
2024/01/04 07:02:42;;;;;;;5.80;1.45;;;2.70;99.90;;;;;;5031646;28;20034;-67
2024/01/04 07:05:10;;;;;;;3.15;1.23;;;2.70;99.90;;;;;;5035297;28;20037;-68
2024/01/04 07:07:36;;;;;;;4.80;1.27;;;2.70;99.90;;;;;;5025002;28;20041;-67
2024/01/04 07:10:02;;;;;;;4.38;1.17;;;2.60;99.90;;;;;;5036625;28;20493;-67
2024/01/04 07:12:28;;;;;;;6.75;1.45;;;2.60;99.90;;;;;;5036419;28;20381;-68
2024/01/04 07:14:54;;;;;;;3.60;0.80;;;2.60;99.90;;;;;;5037920;28;20037;-68
2024/01/04 07:17:22;;;;;;;5.72;1.75;;;2.60;99.90;;;;;;5040767;28;20037;-68
2024/01/04 07:19:47;;;;;;;4.80;0.85;;;2.60;99.90;;;;;;5017128;28;20053;-68
2024/01/04 07:22:15;;;;;;;5.43;0.98;;;2.60;99.90;;;;;;5028459;28;20429;-68
2024/01/04 07:24:41;;;;;;;2.28;0.50;;;2.60;99.90;;;;;;5036459;28;20029;-68
2024/01/04 07:27:08;;;;;;;3.55;0.85;;;2.60;99.90;;;;;;5031320;28;20048;-68
2024/01/04 07:29:34;;;;;;;1.75;0.68;;;2.60;99.90;;;;;;5028912;28;20647;-67
2024/01/04 07:31:59;;;;;;;3.28;0.88;;;2.70;99.90;;;;;;5033905;28;20068;-67
2024/01/04 07:34:26;;;;;;;2.55;0.93;;;2.70;99.90;;;;;;5042690;28;20053;-68
2024/01/04 07:36:51;;;;;;;4.20;1.00;;;2.70;99.90;;;;;;5040152;28;20062;-68
2024/01/04 07:39:17;;;;;;;3.25;0.90;;;2.70;99.90;;;;;;5023097;28;20037;-68
2024/01/04 07:41:43;;;;;;;3.38;0.73;;;2.80;99.90;;;;;;5045587;28;20044;-68
2024/01/04 07:44:10;;;;;;;3.60;0.80;;;2.70;99.90;;;;;;5029188;28;20037;-67
2024/01/04 07:46:36;;;;;;;4.38;1.10;;;2.70;99.90;;;;;;5019435;28;20041;-68
2024/01/04 07:49:03;;;;;;;1.38;0.68;;;2.60;99.90;;;;;;5036237;28;20052;-68
2024/01/04 07:51:29;;;;;;;1.60;0.90;;;2.50;99.90;;;;;;5033644;28;20424;-67
2024/01/04 07:53:55;;;;;;;5.18;1.08;;;2.50;99.90;;;;;;5032065;28;20472;-68
2024/01/04 07:56:21;;;;;;;1.65;0.90;;;2.50;99.90;;;;;;5029968;28;20091;-68
2024/01/04 07:58:47;;;;;;;3.80;1.10;;;2.50;99.90;;;;;;5015203;28;20033;-67
2024/01/04 08:01:13;;;;;;;4.50;1.30;;;2.50;99.90;;;;;;5031471;28;20179;-67
2024/01/04 08:03:39;;;;;;;2.60;1.30;;;2.40;99.90;;;;;;5037427;28;20033;-67
2024/01/04 08:06:05;;;;;;;5.72;1.60;;;2.40;99.90;;;;;;5034537;28;20033;-68
2024/01/04 08:08:31;;;;;;;5.70;1.25;;;2.40;99.90;;;;;;5042906;28;20341;-67
2024/01/04 08:10:59;;;;;;;2.38;1.08;;;2.50;99.90;;;;;;5017769;28;20571;-67
2024/01/04 08:13:25;;;;;;;2.40;1.33;;;2.50;99.90;;;;;;5036996;28;20049;-67
2024/01/04 08:15:50;;;;;;;2.55;1.17;;;2.60;99.90;;;;;;5041027;28;20044;-67
2024/01/04 08:18:22;;;;;;;2.72;1.15;;;2.60;99.90;;;;;;5034738;28;20532;-68
2024/01/04 08:20:48;;;;;;;2.88;1.13;;;2.60;99.90;;;;;;5034420;28;20141;-67
2024/01/04 08:23:14;;;;;;;5.65;1.25;;;2.60;99.90;;;;;;5016920;28;20065;-67
2024/01/04 08:25:40;;;;;;;6.28;1.55;;;2.60;99.90;;;;;;5038885;28;20076;-67
2024/01/04 08:28:08;;;;;;;8.25;2.13;;;2.60;99.90;;;;;;5033335;28;20125;-67
2024/01/04 08:30:34;;;;;;;8.10;1.88;;;2.60;99.90;;;;;;5033809;28;20058;-67
2024/01/04 08:33:00;;;;;;;4.43;1.75;;;2.60;99.90;;;;;;5029654;28;20107;-68
2024/01/04 08:35:25;;;;;;;6.25;2.05;;;2.50;99.90;;;;;;5032188;28;20053;-67
2024/01/04 08:37:51;;;;;;;4.35;1.10;;;2.50;99.90;;;;;;5040828;28;20069;-67
2024/01/04 08:40:17;;;;;;;4.15;1.20;;;2.40;99.90;;;;;;5017819;28;20067;-67
2024/01/04 08:42:42;;;;;;;5.15;1.10;;;2.40;99.90;;;;;;5025468;28;20033;-67
2024/01/04 08:45:11;;;;;;;4.93;1.40;;;2.50;99.90;;;;;;5032730;28;20037;-67
2024/01/04 08:47:37;;;;;;;5.03;1.10;;;2.50;99.90;;;;;;5016006;28;20087;-67
2024/01/04 08:50:04;;;;;;;3.55;1.10;;;2.50;99.90;;;;;;5036802;28;20214;-67
2024/01/04 08:52:30;;;;;;;4.90;1.17;;;2.60;99.90;;;;;;5052371;28;20049;-67
2024/01/04 08:54:56;;;;;;;2.22;1.00;;;2.60;99.90;;;;;;5035377;28;20128;-67
2024/01/04 08:57:22;;;;;;;2.92;1.00;;;2.70;99.90;;;;;;5052275;28;20119;-68
2024/01/04 08:59:48;;;;;;;3.10;1.30;;;2.60;99.90;;;;;;5048223;28;20473;-67
2024/01/04 09:02:13;;;;;;;3.83;1.00;;;2.70;99.90;;;;;;5024885;28;20115;-68
2024/01/04 09:04:39;;;;;;;1.63;1.00;;;2.70;99.90;;;;;;5051618;28;20072;-67
2024/01/04 09:07:05;;;;;;;2.75;0.98;;;2.90;99.90;;;;;;5041922;28;20032;-67
2024/01/04 09:09:30;;;;;;;3.72;1.30;;;3.00;99.90;;;;;;5035413;28;20440;-67
2024/01/04 09:11:56;;;;;;;7.32;1.70;;;3.00;99.90;;;;;;5031948;28;20048;-67
2024/01/04 09:14:22;;;;;;;7.10;1.92;;;3.10;99.90;;;;;;5021520;28;20045;-67
2024/01/04 09:16:48;;;;;;;4.40;1.42;;;3.20;99.90;;;;;;5017874;28;20481;-66
2024/01/04 09:19:14;;;;;;;5.13;1.20;;;3.20;99.90;;;;;;5031614;28;20049;-67
2024/01/04 09:21:41;;;;;;;4.65;1.02;;;3.30;99.90;;;;;;5033702;28;20041;-67
2024/01/04 09:24:07;;;;;;;6.10;1.50;;;3.40;99.90;;;;;;5028926;28;20033;-70
2024/01/04 09:26:33;;;;;;;3.47;1.60;;;3.40;99.90;;;;;;5032566;28;20037;-67
2024/01/04 09:28:58;;;;;;;3.90;1.30;;;3.40;99.90;;;;;;5015620;28;20125;-67
2024/01/04 09:31:24;;;;;;;3.60;1.27;;;3.50;99.90;;;;;;5030445;28;20061;-67
2024/01/04 09:33:50;;;;;;;4.00;1.30;;;3.60;99.90;;;;;;5037628;28;20038;-67
2024/01/04 09:36:15;;;;;;;6.88;1.38;;;3.70;99.90;;;;;;5032750;28;20038;-67
2024/01/04 09:38:41;;;;;;;6.40;1.50;;;3.80;99.90;;;;;;5035324;28;20036;-67
2024/01/04 09:41:25;;;;;;;5.95;1.30;;;3.80;99.90;;;;;;5038797;28;20046;-66
2024/01/04 09:43:55;;;;;;;3.88;1.20;;;3.80;99.90;;;;;;5041607;28;20480;-66
2024/01/04 09:46:31;;;;;;;2.42;0.90;;;3.80;99.90;;;;;;5044477;28;20047;-67
2024/01/04 09:49:01;;;;;;;3.47;0.82;;;3.70;99.90;;;;;;5044445;28;20078;-67
2024/01/04 09:51:37;;;;;;;2.75;1.13;;;3.70;99.90;;;;;;5030463;28;20144;-67
2024/01/04 09:54:08;;;;;;;2.15;0.68;;;3.80;99.90;;;;;;5020717;28;20041;-67
2024/01/04 09:56:37;;;;;;;9.48;1.23;;;3.90;99.90;;;;;;5019360;28;20530;-66
2024/01/04 09:59:03;;;;;;;2.50;1.15;;;4.00;99.90;;;;;;5037867;28;20045;-67
2024/01/04 10:01:34;;;;;;;2.20;1.00;;;4.10;95.10;;;;;;5041860;28;20056;-66
2024/01/04 10:04:10;;;;;;;11.60;1.23;;;4.20;97.50;;;;;;5031561;28;20481;-67
2024/01/04 10:06:37;;;;;;;2.35;0.90;;;4.20;86.40;;;;;;5031567;28;20072;-67
2024/01/04 10:09:18;;;;;;;1.48;0.88;;;4.10;70.90;;;;;;5032467;28;20033;-66
2024/01/04 10:12:13;;;;;;;3.25;1.00;;;4.00;19.00;;;;;;5042796;28;20570;-67
2024/01/04 10:14:39;;;;;;;2.33;0.90;;;4.00;19.10;;;;;;5025986;28;20389;-67
2024/01/04 10:17:04;;;;;;;3.08;0.90;;;4.00;12.00;;;;;;5031025;28;20037;-67
2024/01/04 10:19:31;;;;;;;1.30;0.70;;;4.10;9.70;;;;;;5028993;28;20045;-67
2024/01/04 10:22:05;;;;;;;2.40;0.90;;;4.10;5.70;;;;;;5035101;28;20194;-67
2024/01/04 10:24:37;;;;;;;1.85;0.80;;;4.20;1.00;;;;;;5037702;28;20045;-67
2024/01/04 10:27:03;;;;;;;2.45;1.08;;;4.30;1.00;;;;;;5038921;28;20119;-66
2024/01/04 10:29:30;;;;;;;2.72;0.88;;;4.40;1.00;;;;;;5019676;28;20106;-67
2024/01/04 10:32:04;;;;;;;3.22;0.90;;;4.50;1.00;;;;;;5041976;28;20095;-67
2024/01/04 10:34:31;;;;;;;3.85;0.82;;;4.50;1.00;;;;;;5023390;28;20045;-67
2024/01/04 10:37:11;;;;;;;2.88;0.82;;;4.60;1.00;;;;;;5028620;28;20377;-67
2024/01/04 10:39:37;;;;;;;1.55;0.70;;;4.60;1.00;;;;;;5044996;28;20056;-67
2024/01/04 10:42:05;;;;;;;1.90;0.70;;;4.70;1.00;;;;;;5050428;28;20040;-67
2024/01/04 10:44:34;;;;;;;3.25;1.10;;;4.70;1.00;;;;;;5039662;28;20470;-67
2024/01/04 10:47:02;;;;;;;3.40;0.97;;;4.80;1.00;;;;;;5032232;28;20601;-68
2024/01/04 10:49:28;;;;;;;4.50;0.90;;;4.80;99.90;;;;;;5031318;28;20721;-70
2024/01/04 10:51:57;;;;;;;2.55;0.98;;;4.90;99.90;;;;;;5042030;28;20132;-67
2024/01/04 10:54:33;;;;;;;2.05;0.85;;;4.90;99.90;;;;;;5032776;28;20117;-67
2024/01/04 10:56:59;;;;;;;2.00;0.80;;;4.90;99.90;;;;;;5029409;28;20045;-67
2024/01/04 10:59:27;;;;;;;4.38;1.20;;;4.90;99.90;;;;;;5029300;28;20057;-67
2024/01/04 11:01:54;;;;;;;4.18;0.90;;;5.00;99.90;;;;;;5029831;28;20045;-68
2024/01/04 11:04:21;;;;;;;1.70;0.70;;;5.00;99.90;;;;;;5029391;28;20083;-67
2024/01/04 11:06:49;;;;;;;3.72;0.70;;;5.00;99.90;;;;;;5037355;28;20049;-67
2024/01/04 11:09:15;;;;;;;4.60;0.60;;;5.10;99.90;;;;;;5017056;28;20034;-67
2024/01/04 11:11:43;;;;;;;2.83;0.85;;;5.10;99.90;;;;;;5038013;28;20452;-67
2024/01/04 11:14:08;;;;;;;3.92;0.55;;;5.10;99.90;;;;;;5039235;28;20056;-68
2024/01/04 11:16:56;;;;;;;3.10;0.80;;;5.20;99.90;;;;;;5033481;28;20046;-67
2024/01/04 11:19:50;;;;;;;2.72;0.93;;;5.20;99.90;;;;;;5031189;28;20051;-67
2024/01/04 11:22:37;;;;;;;2.08;0.77;;;5.30;99.90;;;;;;5021345;28;20048;-67
2024/01/04 11:25:53;;;;;;;4.63;0.90;;;5.40;99.90;;;;;;5037324;28;20548;-67
2024/01/04 11:28:19;;;;;;;3.58;0.90;;;5.40;99.90;;;;;;5036791;28;20056;-68
2024/01/04 11:30:51;;;;;;;2.20;0.80;;;5.30;99.90;;;;;;5037234;28;20417;-67
2024/01/04 11:33:18;;;;;;;2.72;0.70;;;5.30;99.90;;;;;;5023775;28;20125;-67
2024/01/04 11:35:48;;;;;;;2.13;0.70;;;5.30;99.90;;;;;;5044082;28;20072;-67
2024/01/04 11:38:22;;;;;;;3.60;0.75;;;5.30;99.90;;;;;;5033551;28;20131;-67
2024/01/04 11:40:51;;;;;;;2.20;0.80;;;5.30;99.90;;;;;;5038765;28;20042;-68
2024/01/04 11:43:17;;;;;;;3.75;0.75;;;5.40;99.90;;;;;;5034680;28;20414;-67
2024/01/04 11:45:46;;;;;;;3.83;1.23;;;5.50;99.90;;;;;;5038931;28;20037;-67
2024/01/04 11:48:12;;;;;;;4.27;0.97;;;5.40;99.90;;;;;;5037312;28;20038;-66
2024/01/04 11:50:49;;;;;;;4.07;1.23;;;5.40;99.90;;;;;;5036886;28;20344;-67
2024/01/04 11:53:17;;;;;;;3.33;1.15;;;5.50;99.90;;;;;;5050917;28;20086;-67
2024/01/04 11:55:42;;;;;;;1.38;0.80;;;5.50;99.90;;;;;;5036749;28;20494;-67
2024/01/04 11:58:13;;;;;;;3.92;1.77;;;5.60;99.90;;;;;;5048565;28;20098;-67
2024/01/04 12:00:49;;;;;;;;;;;5.60;99.90;;;;;;5051099;28;20493;-67
2024/01/04 12:03:16;;;;;;;2.90;0.80;;;5.60;99.90;;;;;;5041701;28;19932;-67
2024/01/04 12:05:46;;;;;;;3.03;0.77;;;5.60;99.90;;;;;;5032884;28;20049;-67
2024/01/04 12:08:24;;;;;;;1.75;0.73;;;5.70;99.90;;;;;;5033696;28;20099;-67
2024/01/04 12:10:52;;;;;;;3.58;0.80;;;5.70;99.90;;;;;;5044802;28;20053;-67
2024/01/04 12:13:18;;;;;;;4.43;0.88;;;5.70;99.90;;;;;;5038143;28;20060;-67
2024/01/04 12:15:44;;;;;;;2.97;0.93;;;5.70;99.90;;;;;;5044134;28;20044;-67
2024/01/04 12:18:10;;;;;;;1.95;0.80;;;5.70;99.90;;;;;;5015428;28;20389;-67
2024/01/04 12:20:35;;;;;;;2.00;0.80;;;5.70;99.90;;;;;;5051135;28;20041;-67
2024/01/04 12:23:04;;;;;;;2.35;0.98;;;5.60;99.90;;;;;;5042092;28;20124;-70
2024/01/04 12:25:30;;;;;;;3.47;0.73;;;5.60;99.90;;;;;;5048039;28;20041;-67
2024/01/04 12:27:56;;;;;;;3.42;0.90;;;5.60;99.90;;;;;;5035486;28;20048;-67
2024/01/04 12:30:23;;;;;;;3.05;0.90;;;5.60;99.90;;;;;;5035169;28;20049;-67
2024/01/04 12:32:50;;;;;;;2.00;0.90;;;5.60;99.90;;;;;;5052296;28;20079;-67
2024/01/04 12:35:16;;;;;;;2.72;0.77;;;5.60;99.90;;;;;;5019430;28;20124;-67
2024/01/04 12:37:42;;;;;;;4.45;0.95;;;5.60;99.90;;;;;;5017016;28;20048;-67
2024/01/04 12:40:11;;;;;;;2.75;0.90;;;5.70;99.90;;;;;;5016723;28;20045;-67
2024/01/04 12:42:37;;;;;;;2.55;0.90;;;5.70;99.90;;;;;;5031235;28;20552;-67
2024/01/04 12:45:08;;;;;;;5.55;1.17;;;5.90;99.90;;;;;;5026931;28;20507;-68
2024/01/04 12:47:34;;;;;;;1.98;1.00;;;5.90;99.90;;;;;;5012166;28;20037;-68
2024/01/04 12:50:00;;;;;;;2.13;0.75;;;5.90;99.90;;;;;;5030272;28;20045;-67
2024/01/04 12:52:25;;;;;;;1.88;0.90;;;5.90;99.90;;;;;;5030813;28;20037;-67
2024/01/04 12:54:51;;;;;;;1.50;0.75;;;5.90;99.90;;;;;;5033869;28;20127;-67
2024/01/04 12:57:18;;;;;;;2.63;1.17;;;5.90;99.90;;;;;;5015043;28;20136;-68
2024/01/04 12:59:46;;;;;;;2.28;0.85;;;5.80;99.90;;;;;;5030444;28;20055;-67
2024/01/04 13:02:12;;;;;;;6.13;2.67;;;5.70;99.90;;;;;;5034986;28;20481;-67